Aérodrome :
LOGIN :

S'inscrire | Disclaimer

   EN    FR    IT 

 










Légende :    VFR   VFR Marginal   IFR   IFR Intensif   IFR Très Intensif
Visi : 
Plafond : 
>= 8 km
>= 3000ft
5 à 8 km
1000 à 3000 ft
1500m à 5 km
500 à 1000 ft
800 à 1500m
200 à 500 ft
< 800m
< 200 ft
Symboles :   Orages  Brouillard  Fortes neiges  Fortes précipitations  Vent > 20 kt
SIGMETs :   Divers  Orages  Givrage  Turbulence  Onde Orograph.  Cendres Volcan.






- Altitude de l'aérodrome : 616 ft
- Code IATA : PUF


LFBP - Pau

DERNIER METAR :
  • 200430Z AUTO VRB01KT 9999 FEW062 OVC090 10/07 Q1015 NOSIG

METARs EXPIRÉS :
  • 200400Z AUTO 16003KT 9999 OVC090 10/06 Q1015 NOSIG
  • 200330Z AUTO 15005KT 9999 OVC100 10/06 Q1015 NOSIG
  • 200300Z AUTO 14003KT 9999 OVC100 10/06 Q1015 NOSIG
  • 200230Z AUTO 00000KT 9999 BKN100 OVC120 10/06 Q1015 NOSIG
  • 200200Z AUTO VRB02KT CAVOK 10/06 Q1015 NOSIG

TAF TAF LFBP
Valide du 20 à 00h jusqu'au 21 à 00h UTC


192300Z 2000/2024 29005KT CAVOK
BECMG 2002/2004 VRB02KT
BECMG 2010/2012 30010KT
PROB40
TEMPO 2012/2015 BKN060TCU
BECMG 2022/2024 VRB02KT



MET'MAP, la Météo Aéronautique d'un coup d'oeil ! - Copyright ORBIFLY Décembre 2007 - Disclaimer

ORBIFLY MET'MAP TEAM :

Programmation & Développement : Alexandra Zaïnal
Sur une idée originale de : Baudouin d'Aumeries
Assistance à la programmation : Marc-Olivier Méhu
Soutien technique & logistique : Manuel Goepfert

Contact : metmap@orbifly.com




SOURCES & CREDITS :

   NOAA